Main page
METAR-TAF:

METAR-TAF

Airports :

Rouen, France

Rouen Airport

latitude: 49-23N, longitude: 001-11E, elevation: 157 m

Current weather observation

The report was made 41 minutes ago, at 08:30 UTC
Wind 7 kt from the South
Temperature 11°C
Humidity 76%
Pressure 1026 hPa
Visibility: 7000 m
Overcast at a height of 4900 ft

METAR: LFOP 290830Z AUTO 18007KT 7000 OVC049 11/07 Q1026 NOSIG

Time: 11:11 (09:11 UTC)

Forecast

The report was made 4 hours and 11 minutes ago, at 05:00 UTC
Forecast valid from 29 at 06 UTC to 30 at 06 UTC
Wind 5 kt from the South
Visibility 10 km or more
no clouds below 1500 m and no cumulonimbus

TAF: LFOP 290500Z 2906/3006 19005KT CAVOK

Weather observations and forecasts of more than 4000 airports (METAR and TAF reports).

The available stations are represented by yellow and red dots on the map.

Hover mouse over dot to see the name of the station.

Then click to see weather observations and forecasts.

To change the map : click on the green buttons with a black cross to zoom in, on the green button with a dash to zoom out, or on the green arrows for adjacent maps.


METAR-TAF: